Time;durP1;ratioP1;P1;durP2;ratioP2;P2;SDS_P1;SDS_P2;PMS_P1;PMS_P2;Temp;Humidity;BMP_temperature;BMP_pressure;BME280_temperature;BME280_humidity;BME280_pressure;Samples;Min_cycle;Max_cycle;Signal;HPM_P1;HPM_P2
2021/10/03 00:02:22;;;;;;;4.97;3.83;;;;;;;12.60;46.15;100433.59;5073461;28;20031;-76
2021/10/03 00:04:47;;;;;;;5.93;3.80;;;;;;;12.20;45.52;100356.88;5073239;28;20024;-76
2021/10/03 00:07:14;;;;;;;7.43;3.90;;;;;;;12.49;46.26;100420.69;5073358;28;20031;-76
2021/10/03 00:09:40;;;;;;;7.40;4.00;;;;;;;12.43;45.86;100423.19;5073174;28;20067;-76
2021/10/03 00:12:06;;;;;;;6.47;3.90;;;;;;;12.32;46.62;100417.25;5073439;28;20056;-76
2021/10/03 00:14:31;;;;;;;5.65;3.55;;;;;;;11.99;46.60;100365.34;5073063;28;20504;-76
2021/10/03 00:16:57;;;;;;;5.63;3.63;;;;;;;12.27;46.46;100413.44;5072892;28;20032;-76
2021/10/03 00:19:23;;;;;;;6.28;3.58;;;;;;;12.23;46.82;100414.78;5072918;28;20536;-76
2021/10/03 00:21:50;;;;;;;6.45;3.72;;;;;;;12.08;46.44;100396.94;5072861;28;20127;-76
2021/10/03 00:24:16;;;;;;;7.00;3.97;;;;;;;11.81;46.39;100368.13;5072774;28;20029;-81
2021/10/03 00:26:42;;;;;;;6.38;4.30;;;;;;;11.97;46.73;100413.16;5072956;28;20078;-81
2021/10/03 00:29:08;;;;;;;8.43;3.70;;;;;;;11.88;46.71;100400.88;5072994;28;20516;-81
2021/10/03 00:31:33;;;;;;;4.95;3.95;;;;;;;11.95;46.74;100419.59;5072532;28;20052;-81
2021/10/03 00:33:59;;;;;;;5.97;3.95;;;;;;;11.93;47.08;100409.19;5072438;28;20575;-81
2021/10/03 00:36:25;;;;;;;4.93;3.40;;;;;;;11.70;47.34;100406.28;5072689;28;20103;-81
2021/10/03 00:38:50;;;;;;;6.05;3.60;;;;;;;11.80;46.85;100418.56;5072775;28;20082;-81
2021/10/03 00:41:16;;;;;;;6.75;3.90;;;;;;;11.70;47.38;100414.25;5072583;28;20505;-81
2021/10/03 00:43:41;;;;;;;7.65;3.40;;;;;;;11.72;47.28;100419.38;5072568;28;20432;-81
2021/10/03 00:46:07;;;;;;;3.67;3.33;;;;;;;11.68;47.38;100416.22;5072497;28;20020;-81
2021/10/03 00:48:32;;;;;;;4.30;3.10;;;;;;;11.73;47.27;100413.91;5072366;28;20028;-81
2021/10/03 00:50:58;;;;;;;4.50;3.28;;;;;;;11.70;46.96;100408.13;5072404;28;20037;-81
2021/10/03 00:53:24;;;;;;;4.00;3.60;;;;;;;11.55;47.67;100383.31;5071100;28;20043;-81
2021/10/03 00:55:49;;;;;;;5.53;3.47;;;;;;;11.50;46.95;100383.78;5072053;28;20024;-81
2021/10/03 00:58:15;;;;;;;6.47;3.63;;;;;;;11.59;47.60;100405.78;5071987;28;20031;-80
2021/10/03 01:00:42;;;;;;;6.82;3.72;;;;;;;11.54;47.19;100397.53;5072118;28;20111;-81
2021/10/03 01:03:08;;;;;;;5.40;3.45;;;;;;;11.51;48.06;100411.91;5072179;28;20480;-81
2021/10/03 01:05:34;;;;;;;3.45;3.15;;;;;;;10.03;47.86;100191.47;5071917;28;20046;-81
2021/10/03 01:08:00;;;;;;;5.18;3.72;;;;;;;11.43;47.77;100407.41;5071879;28;20058;-81
2021/10/03 01:10:27;;;;;;;3.72;3.40;;;;;;;10.85;48.00;100317.56;5072157;28;20028;-81
2021/10/03 01:12:57;;;;;;;3.80;3.40;;;;;;;11.53;47.16;100401.16;5071554;28;20108;-80
2021/10/03 01:15:25;;;;;;;5.15;3.15;;;;;;;11.39;47.77;100377.00;5071974;28;20485;-81
2021/10/03 01:17:51;;;;;;;6.60;3.40;;;;;;;11.55;47.47;100402.66;5071846;28;20024;-80
2021/10/03 01:20:16;;;;;;;7.32;3.85;;;;;;;11.04;47.75;100317.28;5072069;28;20052;-80
2021/10/03 01:22:42;;;;;;;4.05;3.45;;;;;;;11.53;47.58;100395.88;5070607;28;20040;-81
2021/10/03 01:25:09;;;;;;;5.03;3.55;;;;;;;11.53;47.25;100394.06;5071780;28;20025;-76
2021/10/03 01:27:36;;;;;;;5.50;3.55;;;;;;;11.09;48.01;100322.06;5071663;28;20096;-76
2021/10/03 01:30:08;;;;;;;5.15;4.03;;;;;;;10.78;47.64;100280.41;5071760;28;20028;-76
2021/10/03 01:32:34;;;;;;;5.45;3.60;;;;;;;11.46;47.64;100393.88;5071493;28;20025;-77
2021/10/03 01:34:59;;;;;;;5.20;3.63;;;;;;;11.42;47.71;100397.84;5071568;28;20051;-75
2021/10/03 01:37:25;;;;;;;6.25;3.80;;;;;;;11.42;47.68;100389.91;5071481;28;20029;-76
2021/10/03 01:39:51;;;;;;;4.40;3.00;;;;;;;11.30;48.04;100377.97;5071404;28;20565;-77
2021/10/03 01:42:16;;;;;;;4.88;3.50;;;;;;;11.38;48.10;100398.31;5071326;28;20024;-76
2021/10/03 01:44:42;;;;;;;5.03;3.58;;;;;;;11.31;48.16;100384.09;5071483;28;20058;-76
2021/10/03 01:47:07;;;;;;;5.80;3.15;;;;;;;11.32;48.22;100389.22;5071163;28;20049;-75
2021/10/03 01:49:33;;;;;;;10.30;4.00;;;;;;;10.17;48.56;100201.44;5071380;28;20028;-77
2021/10/03 01:51:58;;;;;;;5.85;3.50;;;;;;;11.40;48.38;100393.69;5071523;28;20108;-77
2021/10/03 01:54:24;;;;;;;5.38;3.60;;;;;;;11.25;48.33;100379.47;5071300;28;20036;-77
2021/10/03 01:56:50;;;;;;;6.35;3.70;;;;;;;11.20;48.28;100377.31;5071447;28;20039;-76
2021/10/03 01:59:17;;;;;;;4.68;3.70;;;;;;;11.28;48.46;100395.81;5071368;28;20035;-76
2021/10/03 02:01:44;;;;;;;8.55;3.60;;;;;;;11.26;48.47;100387.22;5071268;28;20035;-76
2021/10/03 02:04:18;;;;;;;5.38;3.40;;;;;;;11.07;48.70;100371.63;5071153;28;20105;-77
2021/10/03 02:06:46;;;;;;;6.03;3.63;;;;;;;11.08;48.78;100382.03;5071439;28;20036;-77
2021/10/03 02:09:14;;;;;;;8.35;3.97;;;;;;;11.20;48.67;100398.44;5071540;28;20052;-76
2021/10/03 02:11:42;;;;;;;5.28;3.78;;;;;;;11.12;48.53;100380.72;5071119;28;20032;-76
2021/10/03 02:14:09;;;;;;;6.88;3.53;;;;;;;11.03;48.73;100365.81;5071073;28;20611;-77
2021/10/03 02:16:34;;;;;;;4.97;3.42;;;;;;;10.54;48.41;100282.97;5071150;28;20489;-76
2021/10/03 02:19:00;;;;;;;7.13;3.55;;;;;;;11.15;48.29;100390.16;5070922;28;20031;-76
2021/10/03 02:21:27;;;;;;;5.80;3.03;;;;;;;11.12;48.73;100380.72;5071176;28;20489;-76
2021/10/03 02:23:53;;;;;;;4.20;3.08;;;;;;;11.00;48.59;100374.06;5071291;28;20028;-81
2021/10/03 02:26:18;;;;;;;4.32;3.17;;;;;;;10.58;48.99;100307.22;5074408;28;20485;-81
2021/10/03 02:28:44;;;;;;;4.28;3.35;;;;;;;11.08;48.65;100387.31;5074896;28;20115;-81
2021/10/03 02:31:11;;;;;;;7.10;3.10;;;;;;;11.01;48.69;100372.25;5075010;28;20100;-81
2021/10/03 02:33:39;;;;;;;6.72;3.15;;;;;;;11.02;48.67;100384.47;5073632;28;20427;-81
2021/10/03 02:36:06;;;;;;;6.70;3.55;;;;;;;10.98;49.15;100377.88;5074994;28;20115;-81
2021/10/03 02:38:33;;;;;;;4.70;3.63;;;;;;;10.86;49.25;100355.38;5074970;28;20024;-81
2021/10/03 02:41:00;;;;;;;5.30;3.20;;;;;;;11.08;49.11;100383.84;5074899;28;20028;-81
2021/10/03 02:43:28;;;;;;;6.65;3.50;;;;;;;11.03;48.97;100375.56;5074846;28;20024;-80
2021/10/03 02:45:54;;;;;;;3.72;3.08;;;;;;;11.10;49.37;100387.16;5074889;28;20017;-81
2021/10/03 02:48:22;;;;;;;4.32;3.55;;;;;;;10.96;49.22;100361.34;5074826;28;20029;-80
2021/10/03 02:50:49;;;;;;;5.60;3.42;;;;;;;11.14;48.95;100426.31;5074816;28;20039;-80
2021/10/03 02:53:16;;;;;;;7.43;3.67;;;;;;;11.11;48.97;100389.63;5074530;28;20073;-80
2021/10/03 02:55:41;;;;;;;4.60;3.45;;;;;;;11.08;49.56;100382.03;5074404;28;20036;-80
2021/10/03 02:58:07;;;;;;;6.55;3.40;;;;;;;11.11;48.98;100394.09;5074502;28;20024;-80
2021/10/03 03:00:35;;;;;;;6.88;3.95;;;;;;;11.13;49.82;100392.94;5074469;28;20033;-80
2021/10/03 03:03:00;;;;;;;4.63;3.25;;;;;;;11.02;49.05;100376.56;5074446;28;20032;-80
2021/10/03 03:05:26;;;;;;;5.45;3.60;;;;;;;10.98;49.38;100360.19;5074487;28;20024;-81
2021/10/03 03:07:51;;;;;;;6.05;3.63;;;;;;;10.54;49.29;100288.25;5074330;28;20024;-80
2021/10/03 03:10:16;;;;;;;7.95;3.67;;;;;;;11.09;49.53;100370.47;5074260;28;20512;-80
2021/10/03 03:12:42;;;;;;;6.45;3.22;;;;;;;11.26;48.78;100381.94;5074279;28;20584;-80
2021/10/03 03:15:09;;;;;;;5.00;3.50;;;;;;;11.27;49.03;100388.88;5072936;28;20157;-80
2021/10/03 03:17:34;;;;;;;5.03;3.08;;;;;;;11.20;48.95;100372.00;5074047;28;20024;-81
2021/10/03 03:20:00;;;;;;;5.03;3.83;;;;;;;10.84;48.49;100310.63;5074096;28;20040;-80
2021/10/03 03:22:26;;;;;;;4.45;3.40;;;;;;;11.25;48.62;100372.34;5074050;28;20488;-80
2021/10/03 03:24:53;;;;;;;5.55;3.80;;;;;;;11.38;48.99;100393.88;5073931;28;20394;-76
2021/10/03 03:27:18;;;;;;;4.43;3.30;;;;;;;11.32;48.91;100394.50;5073948;28;20040;-76
2021/10/03 03:29:44;;;;;;;5.70;3.63;;;;;;;11.27;48.72;100395.97;5073832;28;20032;-76
2021/10/03 03:32:09;;;;;;;5.85;3.30;;;;;;;11.05;49.14;100374.41;5073909;28;20021;-76
2021/10/03 03:34:34;;;;;;;4.95;3.58;;;;;;;11.18;49.01;100399.59;5073738;28;20025;-76
2021/10/03 03:37:00;;;;;;;4.55;3.58;;;;;;;11.12;49.70;100401.03;5073243;28;20032;-76
2021/10/03 03:39:25;;;;;;;4.97;3.40;;;;;;;10.25;49.06;100259.56;5073394;28;20052;-76
2021/10/03 03:41:51;;;;;;;4.10;3.58;;;;;;;11.01;49.20;100377.53;5073615;28;20025;-76
2021/10/03 03:44:17;;;;;;;5.05;3.65;;;;;;;11.12;49.79;100391.28;5073687;28;20511;-76
2021/10/03 03:46:42;;;;;;;6.00;3.67;;;;;;;11.18;49.29;100407.53;5073736;28;20052;-76
2021/10/03 03:49:07;;;;;;;5.63;3.65;;;;;;;10.99;49.30;100384.81;5073706;28;20032;-75
2021/10/03 03:51:33;;;;;;;4.25;3.55;;;;;;;11.07;49.72;100405.97;5073715;28;20064;-76
2021/10/03 03:53:58;;;;;;;4.82;2.97;;;;;;;10.37;49.66;100303.16;5072255;28;20032;-76
2021/10/03 03:56:24;;;;;;;4.03;3.63;;;;;;;10.98;49.58;100409.56;5073373;28;20024;-75
2021/10/03 03:58:49;;;;;;;5.22;3.53;;;;;;;10.84;49.69;100395.16;5073348;28;20028;-76
2021/10/03 04:01:15;;;;;;;6.05;3.45;;;;;;;10.89;50.18;100411.34;5073172;28;20029;-76
2021/10/03 04:03:40;;;;;;;5.00;3.80;;;;;;;10.76;50.19;100390.66;5073170;28;20070;-76
2021/10/03 04:06:05;;;;;;;5.18;3.55;;;;;;;10.77;50.04;100388.84;5073305;28;20064;-76
2021/10/03 04:08:31;;;;;;;6.40;4.25;;;;;;;10.65;50.16;100369.00;5073153;28;20086;-76
2021/10/03 04:10:57;;;;;;;6.32;4.20;;;;;;;10.93;49.88;100423.25;5073267;28;20082;-76
2021/10/03 04:13:22;;;;;;;6.78;3.72;;;;;;;10.92;50.18;100418.13;5073196;28;20028;-75
2021/10/03 04:15:48;;;;;;;4.50;3.35;;;;;;;10.46;50.05;100352.41;5073386;28;20055;-75
2021/10/03 04:18:14;;;;;;;6.22;3.55;;;;;;;10.83;49.91;100422.56;5072969;28;20024;-76
2021/10/03 04:20:40;;;;;;;5.32;3.58;;;;;;;10.76;50.39;100425.00;5073119;28;20499;-75
2021/10/03 04:23:06;;;;;;;5.55;3.60;;;;;;;10.75;50.63;100423.34;5071479;28;20021;-80
2021/10/03 04:25:31;;;;;;;5.95;3.92;;;;;;;10.81;50.18;100424.53;5072875;28;20032;-81
2021/10/03 04:27:57;;;;;;;5.00;4.03;;;;;;;10.77;50.45;100418.72;5073021;28;20064;-80
2021/10/03 04:30:22;;;;;;;5.20;4.15;;;;;;;9.87;50.60;100271.38;5072787;28;20033;-80
2021/10/03 04:32:47;;;;;;;7.45;4.43;;;;;;;10.41;51.01;100374.97;5072785;28;20132;-80
2021/10/03 04:35:13;;;;;;;6.97;4.22;;;;;;;10.71;51.01;100416.72;5072500;28;20028;-81
2021/10/03 04:37:38;;;;;;;6.45;4.07;;;;;;;10.26;50.86;100350.13;5072714;28;20031;-81
2021/10/03 04:40:06;;;;;;;6.80;4.47;;;;;;;10.65;50.92;100420.00;5072510;28;20039;-80
2021/10/03 04:42:31;;;;;;;7.03;4.18;;;;;;;10.57;50.84;100405.91;5072622;28;20103;-80
2021/10/03 04:44:57;;;;;;;9.50;5.65;;;;;;;10.67;50.78;100431.22;5072711;28;20155;-81
2021/10/03 04:47:22;;;;;;;10.25;5.43;;;;;;;10.22;50.68;100349.59;5071788;28;20028;-80
2021/10/03 04:49:49;;;;;;;9.85;6.40;;;;;;;10.61;50.93;100409.91;5072362;28;20032;-80
2021/10/03 04:52:15;;;;;;;11.52;7.53;;;;;;;10.60;50.86;100410.88;5072416;28;20474;-80
2021/10/03 04:54:40;;;;;;;12.25;6.97;;;;;;;10.21;50.75;100347.13;5072341;28;20058;-81
2021/10/03 04:57:06;;;;;;;18.35;7.75;;;;;;;10.66;51.17;100420.81;5072451;28;20028;-80
2021/10/03 04:59:31;;;;;;;8.38;6.15;;;;;;;10.02;51.14;100311.19;5072195;28;20033;-80
2021/10/03 05:01:58;;;;;;;7.25;5.20;;;;;;;10.22;51.58;100348.78;5072184;28;20020;-81
2021/10/03 05:04:24;;;;;;;8.82;5.72;;;;;;;10.01;50.99;100301.63;5072185;28;20025;-80
2021/10/03 05:06:49;;;;;;;11.77;6.63;;;;;;;10.69;51.06;100408.13;5072091;28;20555;-81
2021/10/03 05:09:14;;;;;;;23.60;7.53;;;;;;;10.78;51.51;100424.84;5072052;28;20036;-80
2021/10/03 05:11:40;;;;;;;22.58;7.40;;;;;;;11.01;51.22;100433.88;5072018;28;20081;-80
2021/10/03 05:14:07;;;;;;;18.95;6.60;;;;;;;10.84;51.19;100405.72;5071959;28;20394;-80
2021/10/03 05:16:33;;;;;;;8.77;5.45;;;;;;;11.13;50.99;100437.03;5071998;28;20073;-81
2021/10/03 05:18:59;;;;;;;6.70;4.85;;;;;;;10.83;50.90;100415.47;5071972;28;20036;-80
2021/10/03 05:21:24;;;;;;;5.32;4.82;;;;;;;11.20;51.23;100461.88;5072060;28;20076;-80
2021/10/03 05:23:50;;;;;;;5.40;4.60;;;;;;;11.18;50.91;100453.28;5072076;28;20028;-76
2021/10/03 05:26:15;;;;;;;8.90;5.78;;;;;;;10.92;51.06;100418.97;5071819;28;20154;-76
2021/10/03 05:28:41;;;;;;;9.82;5.25;;;;;;;10.66;50.95;100375.94;5071797;28;20473;-76
2021/10/03 05:31:06;;;;;;;9.95;5.90;;;;;;;11.21;50.96;100438.91;5071590;28;20024;-75
2021/10/03 05:33:32;;;;;;;9.23;6.18;;;;;;;11.32;50.95;100463.25;5071568;28;20695;-76
2021/10/03 05:35:59;;;;;;;9.85;7.18;;;;;;;11.31;50.76;100450.19;5071658;28;20016;-76
2021/10/03 05:38:24;;;;;;;9.85;6.60;;;;;;;10.19;51.21;100257.50;5071782;28;20100;-76
2021/10/03 05:40:50;;;;;;;10.70;6.47;;;;;;;11.45;50.91;100458.31;5071724;28;20116;-76
2021/10/03 05:43:15;;;;;;;50.15;10.23;;;;;;;11.33;50.46;100422.59;5071596;28;20108;-75
2021/10/03 05:45:41;;;;;;;15.20;7.00;;;;;;;11.60;50.37;100458.53;5071363;28;20075;-76
2021/10/03 05:48:06;;;;;;;17.95;7.60;;;;;;;11.56;50.91;100435.22;5071255;28;20528;-76
2021/10/03 05:50:32;;;;;;;17.10;7.13;;;;;;;11.80;50.40;100466.19;5071254;28;20024;-76
2021/10/03 05:52:57;;;;;;;11.23;8.45;;;;;;;11.82;50.50;100461.56;5071194;28;20031;-76
2021/10/03 05:55:23;;;;;;;10.38;6.03;;;;;;;11.72;50.50;100443.16;5070089;28;20039;-77
2021/10/03 05:57:48;;;;;;;10.65;6.30;;;;;;;11.05;50.15;100331.31;5071281;28;20020;-76
2021/10/03 06:00:14;;;;;;;11.32;6.88;;;;;;;11.81;50.07;100436.94;5071073;28;20053;-76
2021/10/03 06:02:40;;;;;;;8.25;5.43;;;;;;;10.94;50.07;100289.34;5071456;28;20046;-76
2021/10/03 06:05:05;;;;;;;11.02;6.43;;;;;;;12.19;49.73;100469.06;5071327;28;20520;-75
2021/10/03 06:07:31;;;;;;;10.57;6.13;;;;;;;11.72;50.38;100388.44;5071226;28;20028;-75
2021/10/03 06:09:56;;;;;;;7.15;5.60;;;;;;;12.28;49.52;100457.47;5071253;28;20042;-76
2021/10/03 06:12:22;;;;;;;9.20;5.43;;;;;;;12.09;50.37;100413.63;5071301;28;20025;-76
2021/10/03 06:14:47;;;;;;;7.65;5.95;;;;;;;12.53;49.93;100463.56;5070906;28;20108;-76
2021/10/03 06:17:13;;;;;;;6.50;5.25;;;;;;;12.67;49.67;100468.22;5071022;28;20028;-75
2021/10/03 06:19:38;;;;;;;10.43;5.63;;;;;;;12.00;49.67;100354.59;5070892;28;20484;-76
2021/10/03 06:22:04;;;;;;;6.70;5.00;;;;;;;12.82;49.31;100474.47;5070971;28;20485;-76
2021/10/03 06:24:29;;;;;;;6.82;5.32;;;;;;;12.83;49.93;100454.91;5071289;28;20028;-80
2021/10/03 06:26:55;;;;;;;8.57;5.20;;;;;;;12.68;49.59;100412.41;5071199;28;20035;-80
2021/10/03 06:29:21;;;;;;;9.73;4.30;;;;;;;13.17;49.46;100467.09;5071117;28;20020;-80
2021/10/03 06:31:46;;;;;;;7.05;4.65;;;;;;;13.17;48.88;100453.81;5070946;28;20420;-80
2021/10/03 06:34:11;;;;;;;15.55;9.15;;;;;;;13.04;48.93;100411.94;5070666;28;20038;-80
2021/10/03 06:36:37;;;;;;;16.42;7.70;;;;;;;13.47;49.15;100463.66;5070633;28;20485;-80
2021/10/03 06:39:03;;;;;;;10.63;6.25;;;;;;;13.59;48.85;100464.09;5071013;28;20029;-80
2021/10/03 06:41:29;;;;;;;12.07;5.70;;;;;;;13.73;48.56;100473.94;5070750;28;20499;-80
2021/10/03 06:43:54;;;;;;;6.32;4.22;;;;;;;13.83;48.36;100474.53;5071032;28;20029;-80
2021/10/03 06:46:20;;;;;;;9.07;4.53;;;;;;;13.84;48.09;100454.97;5071020;28;20516;-80
2021/10/03 06:48:45;;;;;;;9.90;4.70;;;;;;;13.64;47.85;100417.44;5070794;28;20024;-80
2021/10/03 06:51:12;;;;;;;7.38;4.40;;;;;;;12.96;47.82;100300.63;5070779;28;20029;-80
2021/10/03 06:53:38;;;;;;;7.95;4.55;;;;;;;14.14;47.59;100471.84;5070656;28;20027;-80
2021/10/03 06:56:03;;;;;;;8.95;5.00;;;;;;;13.37;47.21;100335.69;5070653;28;20428;-80
2021/10/03 06:58:29;;;;;;;7.65;4.30;;;;;;;14.17;47.08;100460.03;5070990;28;20036;-80
2021/10/03 07:00:55;;;;;;;7.85;4.65;;;;;;;14.35;47.29;100508.38;5070940;28;20028;-80
2021/10/03 07:03:20;;;;;;;6.80;4.60;;;;;;;14.00;47.04;100415.00;5070840;28;20082;-80
2021/10/03 07:05:46;;;;;;;7.15;5.00;;;;;;;14.40;46.76;100462.66;5070644;28;20501;-80
2021/10/03 07:08:12;;;;;;;8.00;4.80;;;;;;;14.63;46.56;100482.91;5070542;28;20477;-80
2021/10/03 07:10:41;;;;;;;9.20;6.28;;;;;;;14.70;46.47;100492.81;5070931;28;20039;-80
2021/10/03 07:13:06;;;;;;;8.20;5.22;;;;;;;14.68;46.17;100484.19;5074416;28;20617;-80
2021/10/03 07:15:33;;;;;;;7.43;5.63;;;;;;;14.66;46.22;100472.91;5074230;28;20050;-80
2021/10/03 07:17:58;;;;;;;6.88;4.93;;;;;;;14.80;46.38;100491.53;5073953;28;20028;-81
2021/10/03 07:20:24;;;;;;;7.50;4.93;;;;;;;14.74;46.15;100488.78;5073983;28;20028;-80
2021/10/03 07:22:49;;;;;;;8.30;5.38;;;;;;;14.87;46.04;100483.69;5073753;28;20089;-80
2021/10/03 07:25:15;;;;;;;6.43;5.03;;;;;;;14.34;45.86;100384.50;5072569;28;20482;-80
2021/10/03 07:27:40;;;;;;;7.15;4.85;;;;;;;14.84;45.76;100457.41;5073925;28;20028;-81
2021/10/03 07:30:06;;;;;;;6.78;5.05;;;;;;;15.04;45.50;100477.16;5073870;28;20024;-80
2021/10/03 07:32:32;;;;;;;7.82;5.13;;;;;;;15.16;45.36;100489.00;5073803;28;20079;-80
2021/10/03 07:34:57;;;;;;;6.70;4.90;;;;;;;15.05;45.32;100460.19;5073421;28;20033;-80
2021/10/03 07:37:23;;;;;;;9.68;7.68;;;;;;;14.61;45.48;100375.13;5073686;28;20532;-81
2021/10/03 07:39:49;;;;;;;5.53;4.95;;;;;;;15.33;45.09;100475.47;5072377;28;20038;-80
2021/10/03 07:42:14;;;;;;;22.63;16.13;;;;;;;15.25;44.89;100441.81;5073788;28;20029;-80
2021/10/03 07:44:39;;;;;;;6.72;5.65;;;;;;;14.90;44.85;100392.91;5073674;28;20091;-80
2021/10/03 07:47:05;;;;;;;37.33;27.42;;;;;;;14.84;44.80;100357.22;5073636;28;20028;-80
2021/10/03 07:49:31;;;;;;;14.02;10.35;;;;;;;15.69;44.62;100500.34;5073406;28;20032;-80
2021/10/03 07:51:56;;;;;;;23.17;8.82;;;;;;;15.72;44.64;100467.19;5073492;28;20095;-81
2021/10/03 07:54:22;;;;;;;11.57;7.63;;;;;;;15.41;44.82;100422.97;5073412;28;20027;-80
2021/10/03 07:56:48;;;;;;;7.78;5.35;;;;;;;15.34;44.63;100378.69;5073552;28;20470;-80
2021/10/03 07:59:13;;;;;;;8.15;5.20;;;;;;;15.99;44.67;100455.78;5073515;28;20073;-80
2021/10/03 08:01:38;;;;;;;8.73;6.00;;;;;;;16.20;44.38;100473.59;5073463;28;20024;-80
2021/10/03 08:04:04;;;;;;;9.23;5.40;;;;;;;15.99;44.19;100425.66;5073105;28;20028;-80
2021/10/03 08:06:31;;;;;;;7.07;5.07;;;;;;;16.26;43.92;100464.81;5073223;28;20027;-80
2021/10/03 08:08:57;;;;;;;34.65;25.98;;;;;;;16.32;44.00;100465.91;5073188;28;20103;-80
2021/10/03 08:11:23;;;;;;;43.72;30.63;;;;;;;16.43;43.63;100466.22;5073176;28;20025;-80
2021/10/03 08:13:49;;;;;;;22.45;14.40;;;;;;;16.48;43.27;100463.81;5073278;28;20478;-81
2021/10/03 08:16:16;;;;;;;15.32;12.30;;;;;;;16.62;43.38;100479.88;5073073;28;20032;-80
2021/10/03 08:18:42;;;;;;;10.15;7.30;;;;;;;16.69;43.26;100473.63;5072729;28;20123;-80
2021/10/03 08:21:07;;;;;;;7.68;4.80;;;;;;;16.68;43.02;100463.97;5072906;28;20485;-80
2021/10/03 08:23:32;;;;;;;8.45;5.25;;;;;;;16.83;42.86;100474.53;5071960;28;20025;-80
2021/10/03 08:25:58;;;;;;;10.75;6.80;;;;;;;16.89;42.46;100470.25;5073143;28;20025;-80
2021/10/03 08:28:25;;;;;;;6.47;4.82;;;;;;;17.02;42.42;100489.00;5072776;28;20031;-80
2021/10/03 08:30:50;;;;;;;7.25;5.65;;;;;;;17.05;42.44;100460.06;5072654;28;20024;-80
2021/10/03 08:33:16;;;;;;;5.10;4.20;;;;;;;17.13;41.89;100454.59;5072596;28;20058;-80
2021/10/03 08:35:41;;;;;;;7.10;4.05;;;;;;;16.71;41.78;100380.09;5072454;28;20036;-80
2021/10/03 08:38:07;;;;;;;6.88;4.05;;;;;;;17.09;41.85;100431.16;5072783;28;20108;-80
2021/10/03 08:40:33;;;;;;;6.18;4.07;;;;;;;17.51;41.41;100474.66;5072824;28;20039;-80
2021/10/03 08:42:58;;;;;;;7.22;4.18;;;;;;;17.57;41.23;100479.19;5072741;28;20028;-80
2021/10/03 08:45:24;;;;;;;5.72;3.83;;;;;;;17.64;41.05;100477.38;5071381;28;20024;-80
2021/10/03 08:47:50;;;;;;;7.15;3.75;;;;;;;17.65;40.83;100457.66;5072459;28;20031;-80
2021/10/03 08:50:18;;;;;;;7.60;3.90;;;;;;;17.83;40.30;100457.09;5072431;28;20524;-80
2021/10/03 08:52:46;;;;;;;7.35;4.03;;;;;;;17.50;39.93;100390.25;5072190;28;20029;-81
2021/10/03 08:55:13;;;;;;;4.72;3.83;;;;;;;18.08;39.59;100471.56;5072043;28;20112;-81
2021/10/03 08:57:39;;;;;;;6.10;3.42;;;;;;;18.15;39.19;100471.56;5072166;28;20020;-80
2021/10/03 09:00:19;;;;;;;7.00;3.22;;;;;;;18.10;38.93;100450.78;5072139;28;20158;-81
2021/10/03 09:02:56;;;;;;;8.85;4.95;;;;;;;18.25;38.71;100448.75;5072107;28;20058;-80
2021/10/03 09:05:23;;;;;;;10.00;4.63;;;;;;;18.43;38.91;100459.63;5072106;28;20044;-81
2021/10/03 09:08:03;;;;;;;4.50;3.20;;;;;;;18.62;38.46;100459.88;5072366;28;20031;-80
2021/10/03 09:10:42;;;;;;;11.57;8.02;;;;;;;18.70;37.89;100467.69;5071764;28;20489;-81
2021/10/03 09:13:08;;;;;;;7.78;4.65;;;;;;;18.48;37.72;100399.34;5070669;28;20025;-80
2021/10/03 09:15:33;;;;;;;4.82;3.70;;;;;;;18.96;37.39;100451.56;5071911;28;20043;-80
2021/10/03 09:17:59;;;;;;;3.55;3.22;;;;;;;19.13;37.03;100461.81;5071709;28;20025;-81
2021/10/03 09:20:26;;;;;;;4.85;3.42;;;;;;;19.29;36.69;100450.63;5071712;28;20040;-80
2021/10/03 09:23:17;;;;;;;4.65;3.22;;;;;;;19.58;36.28;100474.22;5071650;28;20025;-80
2021/10/03 09:25:53;;;;;;;5.63;3.50;;;;;;;19.79;35.92;100445.47;5071769;28;20051;-75
2021/10/03 09:28:24;;;;;;;7.25;4.32;;;;;;;20.03;35.47;100446.53;5071532;28;20394;-76
2021/10/03 09:31:12;;;;;;;5.20;3.10;;;;;;;20.26;34.73;100439.56;5071423;28;20059;-77
2021/10/03 09:33:56;;;;;;;7.38;3.30;;;;;;;20.57;34.35;100441.38;5071065;28;20098;-76
2021/10/03 09:36:26;;;;;;;3.92;2.95;;;;;;;20.77;34.29;100443.03;5071528;28;20025;-75
2021/10/03 09:38:56;;;;;;;6.85;3.45;;;;;;;20.79;33.81;100438.25;5070207;28;20028;-76
2021/10/03 09:41:28;;;;;;;5.75;3.05;;;;;;;20.90;33.56;100416.91;5071475;28;20033;-76
2021/10/03 09:44:14;;;;;;;3.70;2.50;;;;;;;21.21;33.44;100423.13;5070236;28;20025;-76
2021/10/03 09:46:49;;;;;;;4.35;2.85;;;;;;;21.47;32.97;100404.00;5071546;28;20033;-75
2021/10/03 09:49:16;;;;;;;8.45;4.80;;;;;;;21.05;32.59;100322.53;5071288;28;20042;-76
2021/10/03 09:51:46;;;;;;;7.30;4.03;;;;;;;21.65;32.32;100407.72;5070074;28;20402;-77
2021/10/03 09:54:13;;;;;;;7.00;3.58;;;;;;;21.71;32.37;100410.28;5070217;28;20043;-76
2021/10/03 09:56:39;;;;;;;6.25;3.20;;;;;;;21.85;32.11;100397.47;5071425;28;20108;-76
2021/10/03 09:59:05;;;;;;;4.72;3.47;;;;;;;21.89;31.78;100399.47;5071490;28;20100;-76
2021/10/03 10:01:38;;;;;;;6.07;3.45;;;;;;;21.84;31.55;100368.94;5071368;28;20077;-75
2021/10/03 10:04:08;;;;;;;5.55;2.72;;;;;;;22.23;31.12;100396.25;5071269;28;20103;-77
2021/10/03 10:06:34;;;;;;;3.75;3.35;;;;;;;22.26;30.87;100390.41;5071271;28;20023;-76
2021/10/03 10:09:05;;;;;;;5.32;3.28;;;;;;;22.33;30.76;100396.53;5069804;28;20032;-75
2021/10/03 10:11:36;;;;;;;5.68;3.33;;;;;;;22.46;30.01;100391.72;5071116;28;20481;-75
2021/10/03 10:14:03;;;;;;;5.22;3.40;;;;;;;22.40;30.58;100371.13;5071161;28;20031;-75
2021/10/03 10:16:41;;;;;;;6.82;3.33;;;;;;;22.64;30.52;100384.56;5070947;28;20087;-76
2021/10/03 10:19:30;;;;;;;8.32;3.45;;;;;;;22.79;29.99;100384.88;5071302;28;20417;-76
2021/10/03 10:22:19;;;;;;;3.47;2.60;;;;;;;22.96;30.08;100376.91;5071202;28;20150;-75
2021/10/03 10:24:47;;;;;;;4.20;2.60;;;;;;;22.68;29.99;100343.47;5071100;28;20024;-76
2021/10/03 10:27:18;;;;;;;4.15;2.53;;;;;;;23.02;29.73;100375.94;5070920;28;20086;-77
2021/10/03 10:29:51;;;;;;;7.50;3.20;;;;;;;23.06;29.00;100377.13;5070815;28;20047;-76
2021/10/03 10:32:17;;;;;;;5.53;2.72;;;;;;;22.60;29.24;100290.00;5070905;28;20036;-75
2021/10/03 10:35:07;;;;;;;4.28;2.70;;;;;;;23.24;28.71;100368.84;5070829;28;20020;-75
2021/10/03 10:37:51;;;;;;;4.60;2.78;;;;;;;23.44;28.64;100360.31;5069840;28;20024;-76
2021/10/03 10:40:22;;;;;;;5.38;2.60;;;;;;;23.44;28.56;100366.53;5070945;28;20017;-75
2021/10/03 10:42:54;;;;;;;4.57;2.67;;;;;;;23.53;28.08;100361.56;5071024;28;20020;-77
2021/10/03 10:45:33;;;;;;;6.75;2.90;;;;;;;23.57;28.21;100353.84;5070955;28;20021;-76
2021/10/03 10:48:11;;;;;;;5.63;2.72;;;;;;;23.73;27.95;100358.44;5074989;28;20025;-76
2021/10/03 10:50:37;;;;;;;5.95;2.92;;;;;;;23.72;28.09;100349.53;5074646;28;20047;-74
2021/10/03 10:53:22;;;;;;;6.13;2.90;;;;;;;23.86;27.75;100350.03;5074626;28;20025;-75
2021/10/03 10:56:05;;;;;;;5.68;3.33;;;;;;;23.86;27.51;100341.94;5074404;28;20016;-76
2021/10/03 10:58:52;;;;;;;8.95;2.92;;;;;;;23.86;27.69;100341.94;5074493;28;20101;-76
2021/10/03 11:01:40;;;;;;;6.00;3.22;;;;;;;23.94;27.13;100348.81;5074268;28;20029;-74
2021/10/03 11:04:24;;;;;;;7.07;4.18;;;;;;;24.07;26.53;100341.19;5074237;28;20035;-75
2021/10/03 11:06:49;;;;;;;6.03;3.42;;;;;;;24.17;27.13;100342.41;5074399;28;20029;-75
2021/10/03 11:09:16;;;;;;;5.40;2.90;;;;;;;24.31;26.71;100339.13;5074537;28;20023;-75
2021/10/03 11:11:53;;;;;;;5.68;3.38;;;;;;;24.35;25.78;100339.47;5074270;28;20035;-76
2021/10/03 11:14:25;;;;;;;5.93;3.22;;;;;;;24.36;26.70;100333.00;5074382;28;20048;-76
2021/10/03 11:16:52;;;;;;;;;;;;;;;24.41;26.57;100327.66;5074599;28;20504;-74
2021/10/03 11:19:21;;;;;;;4.18;3.22;;;;;;;24.49;26.81;100329.09;5074235;28;19999;-75
2021/10/03 11:21:55;;;;;;;4.07;3.20;;;;;;;24.56;26.71;100318.97;5074253;28;20020;-76
2021/10/03 11:24:24;;;;;;;4.72;3.13;;;;;;;24.59;26.31;100330.09;5074154;28;20124;-76
2021/10/03 11:26:53;;;;;;;5.35;3.40;;;;;;;24.39;26.02;100297.41;5073937;28;20493;-75